Lalas, Greece

12:18 PM EET on January 24, 2018 (GMT +0200)
Megali Vrisi Stiron (Deipnosofistes) | | Change Station

Elev 801 ft 38.16 °N, 24.25 °E | Updated 2 seconds ago

Partly Cloudy
Partly Cloudy
44.2 °F
Feels Like 40 °F
N
6.9
Wind Variable Wind from NNE
Gusts 17.4 mph

Today
High -- | Low -- °F
--% Chance of Precip.
Yesterday
High -- | Low -- °F
Precip. -- in
Pressure 30.30 in
Visibility 6.2 miles
Clouds Few 2000 ft
Mostly Cloudy 3500 ft
Windchill 40 °F
Dew Point 29 °F
Humidity 54%
Rainfall 0.00 in
Snow Depth Not available.
7:33 AM 5:36 PM
Waxing Crescent, 45% visible
METAR LGAV 240950Z 01024G36KT 9999 FEW020 BKN035 07/M03 Q1026 NOSIG
Pressure 30.30 in
Visibility 6.2 miles
Clouds Few 2000 ft
Mostly Cloudy 3500 ft
Windchill 40 °F
Dew Point 29 °F
Humidity 54%
Rainfall 0.00 in
Snow Depth Not available.
7:33 AM 5:36 PM
Waxing Crescent, 45% visible
METAR LGAV 240950Z 01024G36KT 9999 FEW020 BKN035 07/M03 Q1026 NOSIG

Get Severe Weather Alerts

Thanks for signing up!

Be on the lookout for a verification email in your inbox.

You'll start receiving the daily forecast at 6 AM.

×

10-Day Weather Forecast

×

Almanac

Astronomy

Jan. 24, 2018 Rise Set
Actual Time
Civil Twilight
Nautical Twilight
Astronomical Twilight
Moon
Length of Visible Light
Length of Day
Tomorrow will be .
, % of the Moon is Illuminated

Today's Extremes

Country Highs Country Lows

Community

WunderPhotos

Category 6

Welcome to Category 6. This is the collective home for Weather Underground's featured writeups by Dr. Jeff Masters (right), Bob Henson (left), Chris Burt, and other regular contributors.

Nearby

Air Quality

  Air Quality AQ Index Pollutant
Not available.

Snow Depth

Station Depth Elevation

Earthquake Activity

City Distance Mag. Time & Date
Minimum magnitude displayed is 2.5.

Coastal Water Temperatures

Place Temperature

Stations

Nearby Weather Stations

Station Location Temp. Windchill Dew Point Humidity Wind Precip. Elev Updated Type